createdAt,value
2018-07-12T00:00:22.769Z,0.00
2018-07-12T00:01:22.968Z,0.00
2018-07-12T00:02:23.161Z,0.00
2018-07-12T00:03:23.356Z,0.00
2018-07-12T00:04:23.574Z,0.00
2018-07-12T00:06:55.796Z,0.00
2018-07-12T00:07:55.846Z,0.00
2018-07-12T00:08:56.054Z,0.00
2018-07-12T00:11:27.962Z,0.00
2018-07-12T00:12:28.012Z,0.00
2018-07-12T00:13:28.205Z,0.00
2018-07-12T00:14:28.401Z,0.00
2018-07-12T00:15:28.596Z,0.00
2018-07-12T00:16:28.790Z,0.00
2018-07-12T00:17:29.002Z,0.00
2018-07-12T00:18:29.206Z,0.00
2018-07-12T00:19:29.404Z,0.00
2018-07-12T00:20:29.595Z,0.00
2018-07-12T00:21:29.777Z,0.00
2018-07-12T00:22:30.082Z,0.00
2018-07-12T00:23:30.153Z,0.00
2018-07-12T00:24:30.343Z,0.00
2018-07-12T00:25:30.530Z,0.00
2018-07-12T00:26:30.741Z,0.00
2018-07-12T00:27:30.929Z,0.00
2018-07-12T00:28:31.137Z,0.00
2018-07-12T00:29:31.319Z,0.00
2018-07-12T00:30:31.510Z,0.00
2018-07-12T00:31:31.695Z,0.00
2018-07-12T00:32:31.914Z,0.00
2018-07-12T00:33:32.103Z,0.00
2018-07-12T00:34:32.297Z,0.00
2018-07-12T00:35:32.503Z,0.00
2018-07-12T00:36:32.712Z,0.00
2018-07-12T00:37:32.913Z,0.00
2018-07-12T00:38:33.124Z,0.00
2018-07-12T00:39:33.336Z,0.00
2018-07-12T00:40:33.519Z,0.00
2018-07-12T00:41:33.730Z,0.00
2018-07-12T00:42:33.941Z,0.00
2018-07-12T00:43:34.132Z,0.00
2018-07-12T00:44:34.322Z,0.00
2018-07-12T00:45:34.532Z,0.00
2018-07-12T00:46:34.714Z,0.00
2018-07-12T00:47:34.925Z,0.00
2018-07-12T00:48:35.127Z,0.00
2018-07-12T00:49:35.335Z,0.00
2018-07-12T00:50:35.537Z,0.00
2018-07-12T00:51:35.733Z,0.00
2018-07-12T00:52:35.929Z,0.00
2018-07-12T00:53:36.117Z,0.00
2018-07-12T00:54:36.306Z,0.00
2018-07-12T00:55:36.488Z,0.00
2018-07-12T00:56:36.675Z,0.00
2018-07-12T00:57:36.885Z,0.00
2018-07-12T00:58:37.084Z,0.00
2018-07-12T00:59:37.293Z,0.00
2018-07-12T01:00:37.506Z,0.00
2018-07-12T01:01:37.708Z,0.00
2018-07-12T01:02:37.894Z,0.00
2018-07-12T01:03:38.097Z,0.00
2018-07-12T01:04:38.282Z,0.00
2018-07-12T01:05:38.501Z,0.00
2018-07-12T01:06:38.697Z,0.00
2018-07-12T01:07:38.898Z,0.00
2018-07-12T01:08:39.090Z,0.00
2018-07-12T01:09:39.289Z,0.00
2018-07-12T01:10:39.474Z,0.00
2018-07-12T01:13:11.993Z,0.00
2018-07-12T01:14:12.168Z,0.00
2018-07-12T01:15:12.381Z,0.00
2018-07-12T01:16:12.574Z,0.00
2018-07-12T01:17:12.779Z,0.00
2018-07-12T01:18:12.969Z,0.00
2018-07-12T01:19:13.182Z,0.00
2018-07-12T01:20:13.362Z,0.00
2018-07-12T01:21:13.576Z,0.00
2018-07-12T01:22:13.760Z,0.00
2018-07-12T01:23:13.969Z,0.00
2018-07-12T01:24:14.155Z,0.00
2018-07-12T01:25:14.367Z,0.00
2018-07-12T01:26:14.565Z,0.00
2018-07-12T01:27:14.765Z,0.00
2018-07-12T01:28:14.970Z,0.00
2018-07-12T01:29:15.177Z,0.00
2018-07-12T01:30:15.369Z,0.00
2018-07-12T01:31:15.554Z,0.00
2018-07-12T01:32:15.759Z,0.00
2018-07-12T01:33:15.958Z,0.00
2018-07-12T01:34:16.167Z,0.00
2018-07-12T01:35:16.384Z,0.00
2018-07-12T01:36:16.565Z,0.00
2018-07-12T01:37:16.749Z,0.00
2018-07-12T01:38:16.937Z,0.00
2018-07-12T01:39:17.125Z,0.00
2018-07-12T01:40:17.318Z,0.00
2018-07-12T01:41:17.511Z,0.00
2018-07-12T01:42:17.718Z,0.00
2018-07-12T01:43:17.903Z,0.00
2018-07-12T01:44:18.087Z,0.00
2018-07-12T01:45:18.280Z,0.00
2018-07-12T01:46:18.487Z,0.00
2018-07-12T01:47:18.675Z,0.00
2018-07-12T01:48:18.884Z,0.00
2018-07-12T01:49:19.093Z,0.00
2018-07-12T01:50:19.296Z,0.00
2018-07-12T01:51:19.490Z,0.00
2018-07-12T01:52:19.713Z,0.00
2018-07-12T01:53:19.904Z,0.00
2018-07-12T01:54:20.096Z,0.00
2018-07-12T01:55:20.294Z,0.00
2018-07-12T01:56:20.474Z,0.00
2018-07-12T01:57:20.677Z,0.00
2018-07-12T01:58:20.867Z,0.00
2018-07-12T01:59:21.116Z,0.00
2018-07-12T02:00:21.264Z,0.00
2018-07-12T02:01:21.495Z,0.00
2018-07-12T02:02:21.660Z,0.00
2018-07-12T02:03:21.844Z,0.00
2018-07-12T02:04:22.030Z,0.00
2018-07-12T02:05:22.237Z,0.00
2018-07-12T02:06:22.422Z,0.00
2018-07-12T02:07:22.637Z,0.00
2018-07-12T02:08:22.838Z,0.00
2018-07-12T02:09:23.043Z,0.00
2018-07-12T02:10:23.255Z,0.00
2018-07-12T02:11:23.443Z,0.00
2018-07-12T02:12:23.642Z,0.00
2018-07-12T02:13:23.850Z,0.00
2018-07-12T02:14:24.047Z,0.00
2018-07-12T02:15:24.252Z,0.00
2018-07-12T02:16:24.433Z,0.00
2018-07-12T02:17:24.639Z,0.00
2018-07-12T02:18:24.851Z,0.00
2018-07-12T02:20:56.997Z,0.00
2018-07-12T02:21:57.170Z,0.00
2018-07-12T02:22:57.394Z,0.00
2018-07-12T02:23:57.584Z,0.00
2018-07-12T02:24:57.766Z,0.00
2018-07-12T02:25:57.980Z,0.00
2018-07-12T02:26:58.189Z,0.00
2018-07-12T02:27:58.389Z,0.00
2018-07-12T02:28:58.598Z,0.00
2018-07-12T02:29:58.790Z,0.00
2018-07-12T02:30:58.985Z,0.00
2018-07-12T02:31:59.195Z,0.00
2018-07-12T02:32:59.378Z,0.00
2018-07-12T02:33:59.565Z,0.00
2018-07-12T02:34:59.780Z,0.00
2018-07-12T02:35:59.975Z,0.00
2018-07-12T02:37:00.161Z,0.00
2018-07-12T02:38:00.347Z,0.00
2018-07-12T02:39:00.528Z,0.00
2018-07-12T02:40:00.735Z,0.00
2018-07-12T02:41:00.928Z,4.00
2018-07-12T02:42:01.114Z,4.00
2018-07-12T02:44:33.318Z,4.00
2018-07-12T02:45:33.485Z,0.00
2018-07-12T02:46:33.684Z,4.00
2018-07-12T02:47:33.948Z,4.00
2018-07-12T02:48:34.032Z,8.00
2018-07-12T02:49:34.215Z,4.00
2018-07-12T02:50:34.407Z,8.00
2018-07-12T02:51:34.603Z,8.00
2018-07-12T02:52:34.816Z,8.00
2018-07-12T02:53:35.021Z,8.00
2018-07-12T02:54:35.213Z,8.00
2018-07-12T02:55:35.409Z,12.00
2018-07-12T02:56:35.622Z,8.00
2018-07-12T02:57:35.822Z,12.00
2018-07-12T02:58:36.155Z,12.00
2018-07-12T02:59:36.223Z,12.00
2018-07-12T03:00:36.422Z,16.00
2018-07-12T03:01:36.620Z,16.00
2018-07-12T03:02:36.805Z,16.00
2018-07-12T03:03:36.992Z,16.00
2018-07-12T03:04:37.203Z,20.00
2018-07-12T03:05:37.405Z,20.00
2018-07-12T03:06:37.593Z,20.00
2018-07-12T03:07:37.797Z,24.00
2018-07-12T03:08:37.984Z,28.00
2018-07-12T03:09:38.171Z,28.00
2018-07-12T03:10:38.355Z,32.00
2018-07-12T03:11:38.544Z,32.00
2018-07-12T03:12:38.746Z,32.00
2018-07-12T03:13:38.947Z,36.00
2018-07-12T03:14:39.142Z,40.00
2018-07-12T03:15:39.335Z,44.00
2018-07-12T03:16:39.532Z,48.00
2018-07-12T03:17:39.716Z,52.00
2018-07-12T03:18:39.911Z,56.00
2018-07-12T03:19:40.160Z,60.00
2018-07-12T03:20:40.353Z,68.00
2018-07-12T03:21:40.567Z,68.00
2018-07-12T03:22:40.775Z,72.00
2018-07-12T03:23:40.967Z,76.00
2018-07-12T03:24:41.168Z,80.00
2018-07-12T03:25:41.362Z,80.00
2018-07-12T03:26:41.558Z,80.00
2018-07-12T03:27:41.753Z,80.00
2018-07-12T03:28:41.949Z,92.00
2018-07-12T03:29:42.169Z,96.00
2018-07-12T03:30:42.374Z,104.00
2018-07-12T03:31:42.572Z,112.00
2018-07-12T03:32:42.778Z,116.00
2018-07-12T03:33:42.961Z,120.00
2018-07-12T03:34:43.169Z,124.00
2018-07-12T03:35:43.354Z,136.00
2018-07-12T03:36:43.549Z,144.00
2018-07-12T03:37:43.740Z,152.00
2018-07-12T03:38:43.931Z,156.00
2018-07-12T03:39:44.148Z,164.00
2018-07-12T03:40:44.337Z,172.00
2018-07-12T03:41:44.545Z,184.00
2018-07-12T03:42:44.749Z,192.00
2018-07-12T03:43:44.936Z,196.00
2018-07-12T03:44:45.123Z,204.00
2018-07-12T03:45:45.346Z,220.00
2018-07-12T03:46:45.551Z,244.00
2018-07-12T03:47:45.734Z,260.00
2018-07-12T03:48:45.969Z,272.00
2018-07-12T03:49:46.164Z,288.00
2018-07-12T03:52:18.293Z,360.00
2018-07-12T03:53:18.458Z,392.00
2018-07-12T03:54:18.652Z,420.00
2018-07-12T03:55:18.848Z,440.00
2018-07-12T03:56:19.042Z,460.00
2018-07-12T03:57:19.244Z,468.00
2018-07-12T03:58:19.445Z,452.00
2018-07-12T03:59:19.644Z,444.00
2018-07-12T04:00:19.854Z,460.00
2018-07-12T04:01:20.059Z,496.00
2018-07-12T04:02:20.244Z,532.00
2018-07-12T04:03:20.434Z,556.00
2018-07-12T04:04:20.624Z,584.00
2018-07-12T04:05:20.847Z,616.00
2018-07-12T04:06:21.041Z,656.00
2018-07-12T04:07:21.243Z,724.00
2018-07-12T04:08:21.438Z,804.00
2018-07-12T04:09:21.646Z,876.00
2018-07-12T04:10:21.848Z,936.00
2018-07-12T04:11:22.036Z,1024.00
2018-07-12T04:12:22.232Z,1124.00
2018-07-12T04:13:22.430Z,1212.00
2018-07-12T04:14:22.615Z,1276.00
2018-07-12T04:15:22.807Z,1320.00
2018-07-12T04:16:23.016Z,1460.00
2018-07-12T04:17:23.200Z,2016.00
2018-07-12T04:18:23.387Z,2524.00
2018-07-12T04:19:23.576Z,3440.00
2018-07-12T04:20:23.791Z,3140.00
2018-07-12T04:21:24.000Z,4104.00
2018-07-12T04:22:24.209Z,4472.00
2018-07-12T04:23:24.397Z,4052.00
2018-07-12T04:24:24.594Z,3652.00
2018-07-12T04:25:24.814Z,3692.00
2018-07-12T04:26:25.018Z,3592.00
2018-07-12T04:27:25.210Z,3552.00
2018-07-12T04:28:25.407Z,3504.00
2018-07-12T04:29:25.604Z,3200.00
2018-07-12T04:30:25.793Z,2956.00
2018-07-12T04:31:25.987Z,2768.00
2018-07-12T04:32:26.198Z,2784.00
2018-07-12T04:33:26.415Z,2944.00
2018-07-12T04:34:26.605Z,3132.00
2018-07-12T04:36:58.926Z,2196.00
2018-07-12T04:37:59.104Z,1740.00
2018-07-12T04:38:59.287Z,1448.00
2018-07-12T04:39:59.478Z,1232.00
2018-07-12T04:40:59.703Z,1060.00
2018-07-12T04:41:59.888Z,952.00
2018-07-12T04:43:00.091Z,936.00
2018-07-12T04:44:00.281Z,1004.00
2018-07-12T04:45:00.493Z,1132.00
2018-07-12T04:46:00.688Z,1208.00
2018-07-12T04:47:00.873Z,1296.00
2018-07-12T04:48:01.073Z,1316.00
2018-07-12T04:49:01.262Z,1232.00
2018-07-12T04:50:01.450Z,1180.00
2018-07-12T04:51:01.642Z,1204.00
2018-07-12T04:52:01.971Z,1144.00
2018-07-12T04:53:02.051Z,1112.00
2018-07-12T04:55:34.198Z,1308.00
2018-07-12T04:56:34.372Z,1536.00
2018-07-12T04:57:34.566Z,1712.00
2018-07-12T04:58:34.844Z,1736.00
2018-07-12T04:59:34.965Z,1760.00
2018-07-12T05:00:35.150Z,2028.00
2018-07-12T05:01:35.348Z,2784.00
2018-07-12T05:02:35.529Z,4344.00
2018-07-12T05:03:35.746Z,6444.00
2018-07-12T05:04:35.943Z,9024.00
2018-07-12T05:05:36.132Z,10944.00
2018-07-12T05:06:36.329Z,22464.00
2018-07-12T05:07:36.511Z,23200.00
2018-07-12T05:08:36.711Z,23904.00
2018-07-12T05:09:36.901Z,24032.00
2018-07-12T05:10:37.087Z,24320.00
2018-07-12T05:11:37.273Z,24128.00
2018-07-12T05:12:37.473Z,23008.00
2018-07-12T05:13:37.666Z,22688.00
2018-07-12T05:14:37.888Z,24288.00
2018-07-12T05:15:38.153Z,26464.00
2018-07-12T05:16:38.214Z,25568.00
2018-07-12T05:17:38.429Z,26496.00
2018-07-12T05:18:38.630Z,26752.00
2018-07-12T05:19:38.839Z,21408.00
2018-07-12T05:20:39.047Z,29440.00
2018-07-12T05:21:39.237Z,30496.00
2018-07-12T05:24:11.065Z,27808.00
2018-07-12T05:25:11.246Z,30880.00
2018-07-12T05:26:11.446Z,32704.00
2018-07-12T05:27:11.638Z,34720.00
2018-07-12T05:28:11.843Z,34592.00
2018-07-12T05:29:12.038Z,34880.00
2018-07-12T05:30:12.250Z,35456.00
2018-07-12T05:31:12.439Z,33568.00
2018-07-12T05:33:44.692Z,29152.00
2018-07-12T05:34:44.867Z,14860.00
2018-07-12T05:35:45.080Z,13568.00
2018-07-12T05:36:45.292Z,11128.00
2018-07-12T05:37:45.504Z,9144.00
2018-07-12T05:38:45.706Z,7940.00
2018-07-12T05:39:45.903Z,7088.00
2018-07-12T05:40:46.097Z,6568.00
2018-07-12T05:41:46.283Z,6340.00
2018-07-12T05:42:46.483Z,6896.00
2018-07-12T05:43:46.692Z,6852.00
2018-07-12T05:44:46.888Z,6420.00
2018-07-12T05:45:47.100Z,5396.00
2018-07-12T05:46:47.342Z,4624.00
2018-07-12T05:47:47.519Z,4488.00
2018-07-12T05:48:47.749Z,4284.00
2018-07-12T05:49:47.960Z,4784.00
2018-07-12T05:50:48.177Z,5896.00
2018-07-12T05:51:48.361Z,7208.00
2018-07-12T05:52:48.573Z,8704.00
2018-07-12T05:53:48.771Z,8944.00
2018-07-12T05:54:48.964Z,8208.00
2018-07-12T05:55:49.174Z,7904.00
2018-07-12T05:56:49.364Z,8212.00
2018-07-12T05:57:49.566Z,8924.00
2018-07-12T05:58:49.774Z,8896.00
2018-07-12T05:59:49.992Z,8936.00
2018-07-12T06:00:50.204Z,9496.00
2018-07-12T06:01:50.401Z,10980.00
2018-07-12T06:02:50.612Z,9420.00
2018-07-12T06:03:50.793Z,7620.00
2018-07-12T06:04:50.999Z,6976.00
2018-07-12T06:05:51.195Z,7252.00
2018-07-12T06:06:51.383Z,7240.00
2018-07-12T06:07:51.575Z,6772.00
2018-07-12T06:08:51.779Z,6728.00
2018-07-12T06:09:51.971Z,6720.00
2018-07-12T06:10:52.169Z,6424.00
2018-07-12T06:11:52.372Z,7408.00
2018-07-12T06:12:52.574Z,8056.00
2018-07-12T06:13:52.776Z,7336.00
2018-07-12T06:14:52.964Z,7424.00
2018-07-12T06:15:53.175Z,7788.00
2018-07-12T06:16:53.392Z,7560.00
2018-07-12T06:17:53.604Z,7288.00
2018-07-12T06:18:53.825Z,8348.00
2018-07-12T06:19:54.027Z,11668.00
2018-07-12T06:20:54.233Z,39488.00
2018-07-12T06:23:26.048Z,10684.00
2018-07-12T06:24:26.223Z,10200.00
2018-07-12T06:25:26.442Z,8864.00
2018-07-12T06:26:26.653Z,7636.00
2018-07-12T06:28:59.051Z,6616.00
2018-07-12T06:29:59.154Z,6488.00
2018-07-12T06:30:59.285Z,6304.00
2018-07-12T06:31:59.476Z,5996.00
2018-07-12T06:32:59.697Z,5456.00
2018-07-12T06:33:59.915Z,6276.00
2018-07-12T06:35:00.118Z,6656.00
2018-07-12T06:36:00.307Z,7688.00
2018-07-12T06:37:00.500Z,8908.00
2018-07-12T06:38:00.709Z,9716.00
2018-07-12T06:39:00.916Z,9488.00
2018-07-12T06:40:01.127Z,9384.00
2018-07-12T06:41:01.309Z,13504.00
2018-07-12T06:42:01.531Z,17536.00
2018-07-12T06:43:01.713Z,43072.00
2018-07-12T06:44:01.910Z,64704.00
2018-07-12T06:45:02.123Z,64416.00
2018-07-12T06:46:02.319Z,46880.00
2018-07-12T06:47:02.510Z,34528.00
2018-07-12T06:48:02.704Z,55936.00
2018-07-12T06:49:02.896Z,34656.00
2018-07-12T06:50:03.085Z,30752.00
2018-07-12T06:52:35.221Z,18112.00
2018-07-12T06:53:35.405Z,18656.00
2018-07-12T06:54:35.602Z,17440.00
2018-07-12T06:55:35.811Z,16116.00
2018-07-12T06:56:36.025Z,16068.00
2018-07-12T06:57:36.365Z,14304.00
2018-07-12T06:58:36.443Z,12576.00
2018-07-12T06:59:36.657Z,12944.00
2018-07-12T07:00:36.884Z,13856.00
2018-07-12T07:01:37.047Z,14072.00
2018-07-12T07:02:37.244Z,13300.00
2018-07-12T07:03:37.465Z,12284.00
2018-07-12T07:04:37.649Z,11756.00
2018-07-12T07:05:37.871Z,11788.00
2018-07-12T07:06:38.090Z,11320.00
2018-07-12T07:07:38.295Z,11808.00
2018-07-12T07:08:38.485Z,13912.00
2018-07-12T07:09:38.702Z,14520.00
2018-07-12T07:10:38.932Z,15036.00
2018-07-12T07:11:39.155Z,16288.00
2018-07-12T07:12:39.409Z,20704.00
2018-07-12T07:13:39.605Z,40256.00
2018-07-12T07:14:39.858Z,30336.00
2018-07-12T07:15:39.989Z,32320.00
2018-07-12T07:16:40.174Z,25728.00
2018-07-12T07:17:40.394Z,23776.00
2018-07-12T07:18:40.603Z,19456.00
2018-07-12T07:19:40.801Z,19904.00
2018-07-12T07:20:41.010Z,20352.00
2018-07-12T07:21:41.220Z,19168.00
2018-07-12T07:22:41.414Z,16640.00
2018-07-12T07:23:41.619Z,15416.00
2018-07-12T07:24:41.834Z,16480.00
2018-07-12T07:25:42.035Z,15616.00
2018-07-12T07:26:42.225Z,12716.00
2018-07-12T07:27:42.413Z,11300.00
2018-07-12T07:28:42.626Z,11736.00
2018-07-12T07:31:14.779Z,16320.00
2018-07-12T07:32:14.949Z,14196.00
2018-07-12T07:33:15.146Z,15156.00
2018-07-12T07:35:47.402Z,46432.00
2018-07-12T07:36:47.587Z,23360.00
2018-07-12T07:37:47.803Z,18720.00
2018-07-12T07:38:47.994Z,17984.00
2018-07-12T07:39:48.185Z,18240.00
2018-07-12T07:40:48.406Z,17664.00
2018-07-12T07:41:48.613Z,17248.00
2018-07-12T07:42:48.857Z,16608.00
2018-07-12T07:43:49.018Z,13304.00
2018-07-12T07:44:49.220Z,11400.00
2018-07-12T07:45:49.444Z,11084.00
2018-07-12T07:46:49.655Z,11688.00
2018-07-12T07:47:49.872Z,11984.00
2018-07-12T07:48:50.092Z,11324.00
2018-07-12T07:49:50.289Z,10756.00
2018-07-12T07:50:50.484Z,10224.00
2018-07-12T07:51:50.684Z,9724.00
2018-07-12T07:52:50.886Z,9532.00
2018-07-12T07:55:23.016Z,8796.00
2018-07-12T07:56:23.196Z,9060.00
2018-07-12T07:57:23.406Z,9176.00
2018-07-12T07:58:23.614Z,9240.00
2018-07-12T07:59:23.816Z,9032.00
2018-07-12T08:00:24.027Z,8832.00
2018-07-12T08:01:24.226Z,9032.00
2018-07-12T08:02:24.446Z,10092.00
2018-07-12T08:03:24.683Z,11892.00
2018-07-12T08:04:24.855Z,16384.00
2018-07-12T08:05:25.052Z,20608.00
2018-07-12T08:06:25.241Z,16864.00
2018-07-12T08:07:25.455Z,16256.00
2018-07-12T08:08:25.660Z,16928.00
2018-07-12T08:09:25.878Z,18112.00
2018-07-12T08:10:26.059Z,17792.00
2018-07-12T08:11:26.254Z,15808.00
2018-07-12T08:12:26.445Z,16832.00
2018-07-12T08:13:26.647Z,16000.00
2018-07-12T08:14:26.849Z,19616.00
2018-07-12T08:15:27.065Z,30400.00
2018-07-12T08:16:27.254Z,23840.00
2018-07-12T08:17:27.452Z,44160.00
2018-07-12T08:19:59.572Z,21184.00
2018-07-12T08:20:59.754Z,24096.00
2018-07-12T08:21:59.963Z,13476.00
2018-07-12T08:23:00.163Z,10748.00
2018-07-12T08:24:00.370Z,9728.00
2018-07-12T08:26:32.197Z,8720.00
2018-07-12T08:27:32.396Z,8860.00
2018-07-12T08:28:32.618Z,8780.00
2018-07-12T08:29:32.805Z,8484.00
2018-07-12T08:30:33.013Z,8220.00
2018-07-12T08:31:33.243Z,8176.00
2018-07-12T08:32:33.440Z,8656.00
2018-07-12T08:33:33.656Z,9632.00
2018-07-12T08:34:33.860Z,11296.00
2018-07-12T08:35:34.065Z,13384.00
2018-07-12T08:36:34.265Z,11432.00
2018-07-12T08:37:34.476Z,11320.00
2018-07-12T08:38:34.693Z,10956.00
2018-07-12T08:39:34.894Z,10508.00
2018-07-12T08:40:35.144Z,10316.00
2018-07-12T08:41:35.333Z,10244.00
2018-07-12T08:42:35.616Z,10244.00
2018-07-12T08:43:35.736Z,10152.00
2018-07-12T08:44:35.950Z,9804.00
2018-07-12T08:45:36.145Z,9728.00
2018-07-12T08:46:36.336Z,9740.00
2018-07-12T08:47:36.543Z,10128.00
2018-07-12T08:48:36.761Z,10640.00
2018-07-12T08:49:36.974Z,11064.00
2018-07-12T08:50:37.164Z,11456.00
2018-07-12T08:51:37.384Z,12160.00
2018-07-12T08:52:37.606Z,12116.00
2018-07-12T08:53:37.829Z,12096.00
2018-07-12T08:54:38.050Z,18464.00
2018-07-12T08:55:38.226Z,24928.00
2018-07-12T08:56:38.440Z,12952.00
2018-07-12T08:57:38.657Z,12608.00
2018-07-12T08:58:38.869Z,12220.00
2018-07-12T08:59:39.075Z,12300.00
2018-07-12T09:00:39.277Z,14728.00
2018-07-12T09:01:40.250Z,12920.00
2018-07-12T09:02:39.765Z,12464.00
2018-07-12T09:03:39.940Z,11808.00
2018-07-12T09:04:40.153Z,11296.00
2018-07-12T09:05:40.387Z,10364.00
2018-07-12T09:06:40.595Z,9496.00
2018-07-12T09:07:40.841Z,9028.00
2018-07-12T09:08:41.067Z,8716.00
2018-07-12T09:09:41.287Z,8732.00
2018-07-12T09:10:41.484Z,9028.00
2018-07-12T09:11:41.700Z,9096.00
2018-07-12T09:12:41.973Z,8956.00
2018-07-12T09:13:42.138Z,8928.00
2018-07-12T09:14:42.350Z,9092.00
2018-07-12T09:15:42.590Z,9176.00
2018-07-12T09:16:42.774Z,9400.00
2018-07-12T09:17:42.964Z,10348.00
2018-07-12T09:18:43.693Z,11624.00
2018-07-12T09:19:43.360Z,13228.00
2018-07-12T09:20:43.547Z,15392.00
2018-07-12T09:21:43.775Z,17952.00
2018-07-12T09:22:43.946Z,20224.00
2018-07-12T09:23:44.161Z,25568.00
2018-07-12T09:24:44.374Z,20704.00
2018-07-12T09:25:44.597Z,20000.00
2018-07-12T09:26:44.790Z,21728.00
2018-07-12T09:27:44.989Z,46528.00
2018-07-12T09:28:45.174Z,44768.00
2018-07-12T09:29:45.369Z,25600.00
2018-07-12T09:32:17.820Z,21088.00
2018-07-12T09:33:18.029Z,22720.00
2018-07-12T09:34:18.253Z,37952.00
2018-07-12T09:35:18.461Z,34080.00
2018-07-12T09:36:18.669Z,48576.00
2018-07-12T09:37:18.861Z,24128.00
2018-07-12T09:38:19.079Z,30624.00
2018-07-12T09:39:19.298Z,35968.00
2018-07-12T09:40:19.513Z,31776.00
2018-07-12T09:41:19.707Z,27424.00
2018-07-12T09:42:19.927Z,22624.00
2018-07-12T09:43:20.119Z,19232.00
2018-07-12T09:44:20.313Z,17152.00
2018-07-12T09:45:20.518Z,15224.00
2018-07-12T09:46:20.735Z,13968.00
2018-07-12T09:47:20.995Z,12960.00
2018-07-12T09:48:21.137Z,12176.00
2018-07-12T09:49:21.475Z,11680.00
2018-07-12T09:50:21.566Z,11304.00
2018-07-12T09:51:21.785Z,11292.00
2018-07-12T09:52:21.987Z,11672.00
2018-07-12T09:53:22.181Z,11996.00
2018-07-12T09:54:22.374Z,13240.00
2018-07-12T09:55:22.588Z,13792.00
2018-07-12T09:56:22.978Z,14908.00
2018-07-12T09:57:23.007Z,15968.00
2018-07-12T09:58:23.224Z,15936.00
2018-07-12T09:59:23.413Z,16480.00
2018-07-12T10:00:23.635Z,17984.00
2018-07-12T10:01:23.821Z,21952.00
2018-07-12T10:02:24.014Z,29344.00
2018-07-12T10:03:24.214Z,29216.00
2018-07-12T10:04:24.417Z,67712.00
2018-07-12T10:05:24.644Z,33312.00
2018-07-12T10:06:24.844Z,32928.00
2018-07-12T10:07:25.060Z,75616.00
2018-07-12T10:08:25.256Z,60000.00
2018-07-12T10:09:25.455Z,73600.00
2018-07-12T10:10:25.665Z,72000.00
2018-07-12T10:11:25.877Z,62656.00
2018-07-12T10:12:26.076Z,28576.00
2018-07-12T10:13:26.302Z,68896.00
2018-07-12T10:14:26.524Z,48832.00
2018-07-12T10:15:26.737Z,61152.00
2018-07-12T10:16:26.936Z,32128.00
2018-07-12T10:17:27.154Z,24000.00
2018-07-12T10:18:27.357Z,21280.00
2018-07-12T10:19:27.570Z,19648.00
2018-07-12T10:20:27.797Z,19456.00
2018-07-12T10:21:27.986Z,19360.00
2018-07-12T10:22:28.204Z,18560.00
2018-07-12T10:23:28.421Z,18112.00
2018-07-12T10:24:28.632Z,17792.00
2018-07-12T10:25:28.865Z,17568.00
2018-07-12T10:26:29.078Z,17376.00
2018-07-12T10:27:29.269Z,16800.00
2018-07-12T10:28:29.492Z,15308.00
2018-07-12T10:29:29.742Z,14556.00
2018-07-12T10:30:29.916Z,14012.00
2018-07-12T10:31:30.135Z,13408.00
2018-07-12T10:32:30.336Z,12552.00
2018-07-12T10:33:30.538Z,12132.00
2018-07-12T10:34:30.735Z,12124.00
2018-07-12T10:35:30.948Z,12360.00
2018-07-12T10:36:31.146Z,12684.00
2018-07-12T10:37:31.362Z,12920.00
2018-07-12T10:38:31.579Z,15040.00
2018-07-12T10:39:31.786Z,17504.00
2018-07-12T10:40:31.987Z,23296.00
2018-07-12T10:41:32.185Z,24128.00
2018-07-12T10:42:32.404Z,21376.00
2018-07-12T10:43:32.610Z,20704.00
2018-07-12T10:44:32.821Z,20800.00
2018-07-12T10:45:33.028Z,19168.00
2018-07-12T10:46:33.227Z,16704.00
2018-07-12T10:47:33.429Z,15712.00
2018-07-12T10:48:33.725Z,14884.00
2018-07-12T10:49:33.804Z,14472.00
2018-07-12T10:50:34.028Z,13760.00
2018-07-12T10:51:34.236Z,13356.00
2018-07-12T10:52:34.435Z,12796.00
2018-07-12T10:53:34.663Z,12652.00
2018-07-12T10:54:34.877Z,12808.00
2018-07-12T10:55:35.080Z,13348.00
2018-07-12T10:56:35.285Z,16320.00
2018-07-12T10:57:35.499Z,22816.00
2018-07-12T10:58:35.685Z,22656.00
2018-07-12T10:59:35.904Z,20544.00
2018-07-12T11:00:36.114Z,19232.00
2018-07-12T11:01:36.337Z,17472.00
2018-07-12T11:02:36.539Z,15552.00
2018-07-12T11:03:36.733Z,14040.00
2018-07-12T11:04:36.952Z,13404.00
2018-07-12T11:05:37.131Z,12900.00
2018-07-12T11:06:37.346Z,12352.00
2018-07-12T11:09:09.788Z,12016.00
2018-07-12T11:10:09.691Z,12376.00
2018-07-12T11:11:09.886Z,13644.00
2018-07-12T11:12:10.081Z,16128.00
2018-07-12T11:13:10.436Z,17600.00
2018-07-12T11:14:10.515Z,18272.00
2018-07-12T11:15:10.709Z,18304.00
2018-07-12T11:16:10.914Z,18080.00
2018-07-12T11:17:11.142Z,16864.00
2018-07-12T11:18:11.359Z,14568.00
2018-07-12T11:19:11.581Z,12752.00
2018-07-12T11:20:11.806Z,11520.00
2018-07-12T11:21:12.056Z,10804.00
2018-07-12T11:22:12.246Z,10352.00
2018-07-12T11:23:12.441Z,10244.00
2018-07-12T11:24:12.647Z,12964.00
2018-07-12T11:25:12.845Z,13816.00
2018-07-12T11:27:45.277Z,19552.00
2018-07-12T11:28:45.457Z,20608.00
2018-07-12T11:29:45.689Z,22144.00
2018-07-12T11:30:45.902Z,22784.00
2018-07-12T11:31:46.222Z,22592.00
2018-07-12T11:32:46.302Z,20768.00
2018-07-12T11:33:46.505Z,20544.00
2018-07-12T11:34:46.705Z,19520.00
2018-07-12T11:35:46.924Z,17984.00
2018-07-12T11:36:47.125Z,17216.00
2018-07-12T11:37:47.350Z,17184.00
2018-07-12T11:38:47.570Z,16256.00
2018-07-12T11:39:47.789Z,15056.00
2018-07-12T11:42:19.626Z,12080.00
2018-07-12T11:43:19.818Z,11480.00
2018-07-12T11:44:20.013Z,10924.00
2018-07-12T11:45:20.222Z,10680.00
2018-07-12T11:46:20.427Z,10664.00
2018-07-12T11:47:20.617Z,10640.00
2018-07-12T11:48:20.848Z,10336.00
2018-07-12T11:49:21.602Z,9860.00
2018-07-12T11:50:21.325Z,9368.00
2018-07-12T11:52:53.479Z,8048.00
2018-07-12T11:53:53.625Z,7360.00
2018-07-12T11:54:53.814Z,6908.00
2018-07-12T11:55:54.032Z,6644.00
2018-07-12T11:56:54.224Z,6620.00
2018-07-12T11:57:54.484Z,6820.00
2018-07-12T11:58:54.574Z,7120.00
2018-07-12T11:59:54.787Z,9884.00
2018-07-12T12:00:54.984Z,11620.00
2018-07-12T12:01:55.313Z,13632.00
2018-07-12T12:02:55.381Z,14560.00
2018-07-12T12:03:55.573Z,14784.00
2018-07-12T12:04:55.762Z,14880.00
2018-07-12T12:05:55.976Z,14848.00
2018-07-12T12:06:56.193Z,14656.00
2018-07-12T12:07:56.394Z,14320.00
2018-07-12T12:08:56.594Z,14624.00
2018-07-12T12:09:56.857Z,13468.00
2018-07-12T12:10:57.026Z,14624.00
2018-07-12T12:11:57.215Z,14656.00
2018-07-12T12:12:57.454Z,13244.00
2018-07-12T12:13:57.619Z,12828.00
2018-07-12T12:14:57.810Z,13456.00
2018-07-12T12:15:58.100Z,15776.00
2018-07-12T12:16:58.195Z,14508.00
2018-07-12T12:17:59.143Z,14696.00
2018-07-12T12:18:58.610Z,16256.00
2018-07-12T12:19:58.828Z,14320.00
2018-07-12T12:20:59.021Z,13320.00
2018-07-12T12:21:59.235Z,13652.00
2018-07-12T12:22:59.435Z,12656.00
2018-07-12T12:23:59.635Z,12176.00
2018-07-12T12:24:59.833Z,11880.00
2018-07-12T12:26:00.057Z,11560.00
2018-07-12T12:27:00.268Z,11604.00
2018-07-12T12:28:00.487Z,11968.00
2018-07-12T12:29:00.704Z,12528.00
2018-07-12T12:30:00.926Z,12984.00
2018-07-12T12:31:01.157Z,14944.00
2018-07-12T12:32:01.372Z,16640.00
2018-07-12T12:33:01.570Z,17760.00
2018-07-12T12:34:01.759Z,18752.00
2018-07-12T12:35:01.965Z,19392.00
2018-07-12T12:36:02.185Z,19808.00
2018-07-12T12:37:02.411Z,19744.00
2018-07-12T12:38:02.608Z,18976.00
2018-07-12T12:39:02.815Z,17568.00
2018-07-12T12:40:03.015Z,17280.00
2018-07-12T12:41:03.216Z,16960.00
2018-07-12T12:42:03.421Z,17888.00
2018-07-12T12:43:03.648Z,17728.00
2018-07-12T12:44:03.857Z,17280.00
2018-07-12T12:45:04.084Z,15040.00
2018-07-12T12:46:04.305Z,13632.00
2018-07-12T12:47:04.524Z,13424.00
2018-07-12T12:48:04.714Z,15200.00
2018-07-12T12:49:04.925Z,14880.00
2018-07-12T12:50:05.135Z,14880.00
2018-07-12T12:51:05.315Z,14752.00